Airfield :
LOGIN :

Register | Disclaimer

   EN    FR    IT 

 










Legend :    VFR   Marginal VFR   IFR   Intensive IFR   Very Intensive IFR
Visi :
Ceiling :
>= 8 km
>= 3000ft
5 to 8 km
1000 to 3000 ft
1500m to 5 km
500 to 1000 ft
800 to 1500m
200 to 500 ft
< 800m
< 200 ft
Symbols :   Thunderstorms  Fog  Heavy snow  Heavy precipitations  Wind > 20 kt
SIGMETs :     Misc.  Thunderstorms  Icing  Turbulence  Mountain Waves  Volcanic Ashes







- Airport Elevation : 147 ft
- IATA code : DUS


EDDL - Düsseldorf Int.

CURRENT METAR :
  • 150020Z 23008KT 210V270 9999 FEW007 BKN011 03/01 Q0990 TEMPO BKN007

EXPIRED METARs :
  • 142350Z 23008KT 9999 FEW007 BKN011 02/01 Q0990 BECMG BKN020
  • 142320Z 23008KT 9999 FEW008 SCT012 BKN040 02/01 Q0990 TEMPO BKN012
  • 142250Z 21008KT 9999 FEW012 BKN040 02/01 Q0990 NOSIG
  • 142220Z 22007KT 9999 FEW012 BKN038 03/02 Q0990 NOSIG
  • 142150Z 22009KT 9999 -SHRA FEW008 SCT012TCU BKN042 03/02 Q0990 NOSIG

TAF AMD TAF EDDL
Valid from the 15 at 00:00 until the 16 at 06:00 UTC


150008Z 1500/1606 18007KT 9999 FEW012 BKN030
TEMPO 1500/1512 BKN007
PROB30
TEMPO 1508/1513 4000 SHRAGS BKN008CB
BECMG 1512/1515 24004KT BKN012
TEMPO 1519/1606 BKN006
TEMPO 1520/1606 3000 BR
No reported NOTAMs for that airfield.



MET'MAP, your aeronautical weather chart ! - Copyright ORBIFLY December 2007 - Disclaimer

ORBIFLY MET'MAP TEAM :

Programming & Development : Alexandra Zaïnal
Concept & Development : Baudouin d'Aumeries
Co-Development & Prog : Marc-Olivier Méhu
Technical & hardware support : Manuel Goepfert

Contact : metmap@orbifly.com




SOURCES & CREDITS :

   NOAA